Time;durP1;ratioP1;P1;durP2;ratioP2;P2;SDS_P1;SDS_P2;PMS_P1;PMS_P2;Temp;Humidity;BMP_temperature;BMP_pressure;BME280_temperature;BME280_humidity;BME280_pressure;Samples;Min_cycle;Max_cycle;Signal;HPM_P1;HPM_P2
2023/02/02 00:00:31;;;;;;;22.35;4.28;;;;;;;7.61;81.03;102382.81;6105805;19;20031;-76
2023/02/02 00:02:36;;;;;;;16.58;3.53;;;;;;;7.61;80.95;102396.78;6105908;19;20029;-76
2023/02/02 00:04:41;;;;;;;15.63;3.38;;;;;;;7.56;81.40;102388.06;6100054;19;20019;-76
2023/02/02 00:06:47;;;;;;;14.25;3.85;;;;;;;7.57;80.86;102383.72;6095713;19;20490;-76
2023/02/02 00:08:52;;;;;;;14.63;3.78;;;;;;;7.69;80.43;102394.16;6101798;19;20056;-76
2023/02/02 00:11:00;;;;;;;16.42;3.72;;;;;;;7.72;80.42;102390.66;6099250;19;20014;-76
2023/02/02 00:13:05;;;;;;;11.95;4.20;;;;;;;7.64;80.96;102393.28;6100808;19;20014;-76
2023/02/02 00:15:12;;;;;;;30.30;4.47;;;;;;;7.59;81.10;102393.28;6102773;19;20027;-78
2023/02/02 00:17:24;;;;;;;16.63;3.88;;;;;;;7.62;81.51;102400.25;6102523;19;20007;-76
2023/02/02 00:19:32;;;;;;;16.67;3.97;;;;;;;7.64;80.93;102393.28;6099774;19;20027;-76
2023/02/02 00:21:49;;;;;;;11.32;3.38;;;;;;;7.59;80.82;102389.81;6095262;19;20010;-76
2023/02/02 00:23:54;;;;;;;19.17;4.00;;;;;;;7.65;80.97;102400.25;6099879;19;23155;-76
2023/02/02 00:26:02;;;;;;;16.45;3.65;;;;;;;7.66;80.78;102402.88;6100388;19;20042;-77
2023/02/02 00:28:10;;;;;;;14.10;4.63;;;;;;;7.64;81.21;102395.91;6102343;19;20006;-77
2023/02/02 00:30:18;;;;;;;13.77;4.05;;;;;;;7.67;80.87;102403.75;6108579;19;20010;-77
2023/02/02 00:32:23;;;;;;;18.92;4.80;;;;;;;7.64;80.60;102390.66;6108357;19;20039;-75
2023/02/02 00:34:28;;;;;;;13.48;4.03;;;;;;;7.69;80.03;102388.91;6107491;19;20079;-75
2023/02/02 00:36:33;;;;;;;11.70;3.65;;;;;;;7.67;80.64;102408.97;6105248;19;20488;-76
2023/02/02 00:38:39;;;;;;;15.32;3.58;;;;;;;7.74;79.88;102415.94;6107805;19;20014;-76
2023/02/02 00:40:44;;;;;;;15.27;3.30;;;;;;;7.74;79.66;102404.56;6109208;19;20459;-75
2023/02/02 00:42:51;;;;;;;11.77;3.38;;;;;;;7.76;79.76;102405.44;6107922;19;20043;-75
2023/02/02 00:47:15;;;;;;;12.88;3.72;;;;;;;7.74;79.88;102410.69;6107223;19;20007;-75
2023/02/02 00:49:20;;;;;;;14.10;4.03;;;;;;;7.71;80.41;102413.31;6109806;19;20325;-76
2023/02/02 00:51:25;;;;;;;22.02;3.90;;;;;;;7.71;80.23;102415.91;6107787;19;20007;-75
2023/02/02 00:53:30;;;;;;;12.02;3.38;;;;;;;7.67;80.23;102417.69;6104921;19;20010;-76
2023/02/02 00:55:35;;;;;;;17.92;3.88;;;;;;;7.66;80.46;102407.22;6105409;19;20014;-75
2023/02/02 00:57:40;;;;;;;13.90;3.38;;;;;;;7.70;80.50;102411.56;6107765;19;20384;-75
2023/02/02 00:59:48;;;;;;;14.30;4.45;;;;;;;7.73;79.93;102408.06;6109691;19;20019;-75
2023/02/02 01:01:53;;;;;;;15.45;4.10;;;;;;;7.70;80.04;102415.06;6108440;19;20010;-77
2023/02/02 01:04:00;;;;;;;13.57;3.70;;;;;;;7.64;80.72;102412.47;6106250;19;20014;-76
2023/02/02 01:06:05;;;;;;;12.25;3.42;;;;;;;7.67;80.43;102422.06;6104980;19;20661;-76
2023/02/02 01:08:10;;;;;;;17.65;3.95;;;;;;;7.68;80.45;102415.94;6107618;19;20014;-76
2023/02/02 01:10:18;;;;;;;14.25;3.55;;;;;;;7.67;80.62;102416.81;6107816;19;20025;-75
2023/02/02 01:12:23;;;;;;;19.08;4.32;;;;;;;7.69;80.47;102410.72;6106693;19;20119;-76
2023/02/02 01:14:29;;;;;;;19.52;4.65;;;;;;;7.73;80.23;102419.41;6106699;19;20101;-76
2023/02/02 01:16:36;;;;;;;17.15;3.75;;;;;;;7.76;79.98;102405.44;6103755;19;20047;-75
2023/02/02 01:18:41;;;;;;;14.88;3.55;;;;;;;7.67;80.54;102406.34;6106611;19;20479;-76
2023/02/02 01:20:48;;;;;;;16.15;4.57;;;;;;;7.72;80.24;102409.81;6105166;19;20414;-77
2023/02/02 01:22:53;;;;;;;17.73;3.88;;;;;;;7.72;80.17;102415.06;6105031;19;20010;-76
2023/02/02 01:24:58;;;;;;;18.75;4.40;;;;;;;7.66;80.25;102404.59;6107605;19;20023;-76
2023/02/02 01:27:03;;;;;;;15.70;3.83;;;;;;;7.69;80.23;102389.78;6103863;19;20019;-76
2023/02/02 01:29:08;;;;;;;16.80;4.15;;;;;;;7.66;80.60;102394.13;6108092;19;20579;-76
2023/02/02 01:31:15;;;;;;;8.10;3.00;;;;;;;7.71;80.16;102400.22;6106243;19;20386;-76
2023/02/02 01:33:23;;;;;;;18.67;4.07;;;;;;;7.67;80.55;102401.97;6107845;19;20014;-76
2023/02/02 01:35:29;;;;;;;17.08;4.03;;;;;;;7.67;80.55;102406.34;6107786;19;20011;-76
2023/02/02 01:37:36;;;;;;;14.93;4.20;;;;;;;7.63;80.53;102405.47;6105843;19;20520;-75
2023/02/02 01:39:41;;;;;;;14.13;3.63;;;;;;;7.64;80.65;102393.28;6104726;19;20019;-76
2023/02/02 01:41:55;;;;;;;14.63;3.63;;;;;;;7.64;80.50;102404.63;6106422;19;20384;-76
2023/02/02 01:44:03;;;;;;;17.67;4.90;;;;;;;7.62;80.87;102408.13;6106884;19;20006;-76
2023/02/02 01:46:13;;;;;;;15.85;3.20;;;;;;;7.64;80.44;102414.22;6106970;19;20013;-76
2023/02/02 01:48:20;;;;;;;21.52;3.88;;;;;;;7.65;80.41;102415.94;6107406;19;20462;-76
2023/02/02 01:50:32;;;;;;;16.50;3.53;;;;;;;7.65;80.07;102410.72;6105890;19;20019;-76
2023/02/02 01:52:43;;;;;;;20.15;4.75;;;;;;;7.61;80.67;102420.34;6104882;19;20072;-76
2023/02/02 01:54:52;;;;;;;19.95;5.10;;;;;;;7.56;80.90;102408.16;6108123;19;20479;-76
2023/02/02 01:57:04;;;;;;;22.20;3.75;;;;;;;7.62;80.63;102395.03;6107904;19;20022;-76
2023/02/02 01:59:09;;;;;;;19.42;4.20;;;;;;;7.61;80.82;102408.97;6106574;19;20550;-76
2023/02/02 02:01:19;;;;;;;16.10;4.50;;;;;;;7.63;80.74;102415.06;6109717;19;20078;-76
2023/02/02 02:03:28;;;;;;;12.23;3.85;;;;;;;7.61;80.74;102407.25;6107334;19;20104;-76
2023/02/02 02:05:40;;;;;;;14.38;3.90;;;;;;;7.62;80.79;102413.34;6106266;19;20097;-77
2023/02/02 02:07:45;;;;;;;9.05;3.00;;;;;;;7.63;80.34;102417.69;6103506;19;20409;-75
2023/02/02 02:09:54;;;;;;;19.25;4.43;;;;;;;7.67;80.09;102425.53;6105740;19;20394;-76
2023/02/02 02:11:59;;;;;;;11.13;3.58;;;;;;;7.61;80.83;102430.78;6103630;19;20439;-76
2023/02/02 02:16:30;;;;;;;12.13;4.18;;;;;;;7.63;80.35;102413.31;6105889;19;20290;-75
2023/02/02 02:18:56;;;;;;;13.43;4.00;;;;;;;7.66;80.42;102412.44;6105634;19;20017;-76
2023/02/02 02:26:56;;;;;;;18.88;4.28;;;;;;;7.67;80.14;102411.59;6104324;19;20021;-76
2023/02/02 02:29:32;;;;;;;15.05;3.80;;;;;;;7.67;80.57;102409.84;6106971;19;20018;-76
2023/02/02 02:32:02;;;;;;;16.80;3.72;;;;;;;7.63;80.80;102410.69;6079004;19;20014;-76
2023/02/02 02:34:16;;;;;;;18.57;4.10;;;;;;;7.66;80.59;102412.44;6105572;19;20227;-75
2023/02/02 02:36:28;;;;;;;12.57;4.03;;;;;;;7.66;80.60;102413.34;6105397;19;20252;-75
2023/02/02 02:38:44;;;;;;;19.05;3.53;;;;;;;7.69;80.22;102415.06;6104207;19;20469;-75
2023/02/02 02:40:53;;;;;;;13.48;4.00;;;;;;;7.66;80.74;102410.72;6105230;19;20031;-75
2023/02/02 02:43:03;;;;;;;18.00;4.18;;;;;;;7.71;80.35;102413.31;6104714;19;20014;-76
2023/02/02 02:45:12;;;;;;;16.10;3.47;;;;;;;7.69;80.67;102421.19;6104587;19;20019;-76
2023/02/02 02:47:21;;;;;;;12.48;3.92;;;;;;;7.66;80.69;102412.44;6104301;19;20011;-77
2023/02/02 02:49:26;;;;;;;20.05;5.55;;;;;;;7.70;80.02;102412.44;6104948;19;20109;-76
2023/02/02 02:51:45;;;;;;;15.43;4.18;;;;;;;7.74;79.77;102405.47;6104581;19;20027;-77
2023/02/02 02:53:50;;;;;;;14.27;3.67;;;;;;;7.70;79.90;102415.06;6097711;19;20363;-77
2023/02/02 02:56:08;;;;;;;17.77;3.92;;;;;;;7.67;80.25;102411.59;6106787;19;20042;-77
2023/02/02 02:58:18;;;;;;;18.58;4.50;;;;;;;7.72;80.17;102408.97;6108418;19;20050;-77
2023/02/02 03:00:40;;;;;;;10.07;5.55;;;;;;;7.67;80.40;102401.13;6107903;19;20125;-77
2023/02/02 03:02:53;;;;;;;21.02;3.90;;;;;;;7.64;80.61;102404.63;6109448;19;20090;-77
2023/02/02 03:05:03;;;;;;;;;;;;;;;7.69;80.38;102402.84;6106367;19;20342;-76
2023/02/02 03:07:17;;;;;;;12.93;3.72;;;;;;;7.67;80.48;102401.97;6105812;19;19942;-75
2023/02/02 03:09:28;;;;;;;14.55;4.78;;;;;;;7.68;80.26;102408.09;6108183;19;20023;-77
2023/02/02 03:11:33;;;;;;;17.95;4.28;;;;;;;7.64;80.44;102396.75;6109201;19;20471;-76
2023/02/02 03:13:44;;;;;;;15.77;3.40;;;;;;;7.60;80.79;102396.78;6102168;19;20002;-76
2023/02/02 03:15:50;;;;;;;18.10;3.20;;;;;;;7.60;80.48;102402.00;6104314;19;20475;-77
2023/02/02 03:18:00;;;;;;;10.52;3.00;;;;;;;7.65;80.47;102395.88;6103952;19;21068;-76
2023/02/02 03:20:11;;;;;;;15.75;3.20;;;;;;;7.63;80.88;102412.47;6100548;19;20020;-76
2023/02/02 03:22:16;;;;;;;15.60;4.53;;;;;;;7.64;80.48;102411.59;6105178;19;20027;-77
2023/02/02 03:24:21;;;;;;;23.35;3.75;;;;;;;7.62;80.79;102418.56;6103232;19;20066;-76
2023/02/02 03:26:26;;;;;;;16.10;3.05;;;;;;;7.65;80.36;102413.34;6101975;19;20014;-76
2023/02/02 03:28:32;;;;;;;21.10;4.65;;;;;;;7.60;80.72;102410.72;6101648;19;20390;-76
2023/02/02 03:30:40;;;;;;;15.23;4.45;;;;;;;7.72;80.08;102422.91;6103549;19;20014;-76
2023/02/02 03:32:45;;;;;;;14.10;3.63;;;;;;;7.69;80.28;102425.53;6099203;19;20417;-77
2023/02/02 03:34:52;;;;;;;15.98;3.20;;;;;;;7.62;80.76;102429.03;6101692;19;20014;-76
2023/02/02 03:36:58;;;;;;;17.17;3.63;;;;;;;7.63;80.47;102433.38;6102402;19;20357;-76
2023/02/02 03:39:04;;;;;;;16.83;4.28;;;;;;;7.65;80.29;102426.41;6102743;19;20007;-77
2023/02/02 03:41:09;;;;;;;13.48;3.42;;;;;;;7.70;80.17;102427.28;6103954;19;20345;-76
2023/02/02 03:43:14;;;;;;;12.65;3.60;;;;;;;7.69;80.10;102423.78;6104094;19;20010;-77
2023/02/02 03:45:19;;;;;;;18.27;3.75;;;;;;;7.67;80.29;102432.53;6101559;19;20571;-76
2023/02/02 03:47:24;;;;;;;16.20;3.22;;;;;;;7.64;80.50;102430.78;6102064;19;20010;-76
2023/02/02 03:49:29;;;;;;;11.85;2.97;;;;;;;7.67;80.34;102442.97;6101361;19;20505;-76
2023/02/02 03:51:41;;;;;;;13.85;2.88;;;;;;;7.70;80.70;102443.84;6098758;19;20459;-76
2023/02/02 03:53:54;;;;;;;17.60;3.20;;;;;;;7.70;80.56;102443.84;6100435;19;20023;-76
2023/02/02 03:56:01;;;;;;;17.92;4.75;;;;;;;7.69;80.55;102436.00;6101703;19;20537;-76
2023/02/02 03:58:06;;;;;;;20.75;4.78;;;;;;;7.72;80.59;102449.06;6101110;19;20014;-76
2023/02/02 04:00:13;;;;;;;13.20;3.40;;;;;;;7.74;80.83;102438.59;6104415;19;20018;-76
2023/02/02 04:02:20;;;;;;;20.88;4.88;;;;;;;7.73;80.86;102453.44;6101701;19;20022;-77
2023/02/02 04:04:25;;;;;;;14.07;4.03;;;;;;;7.82;80.41;102455.13;6109590;19;20084;-76
2023/02/02 04:06:30;;;;;;;16.80;4.13;;;;;;;7.80;80.67;102444.69;6107125;19;20015;-76
2023/02/02 04:08:38;;;;;;;20.55;4.10;;;;;;;7.76;80.36;102434.22;6106887;19;20397;-76
2023/02/02 04:10:44;;;;;;;11.68;3.17;;;;;;;7.73;80.76;102436.84;6107717;19;20017;-75
2023/02/02 04:12:52;;;;;;;13.40;3.63;;;;;;;7.74;80.73;102439.47;6103818;19;20007;-76
2023/02/02 04:14:57;;;;;;;24.00;4.00;;;;;;;7.76;80.59;102437.72;6106616;19;20011;-77
2023/02/02 04:17:03;;;;;;;15.77;3.78;;;;;;;7.73;80.56;102453.44;6111004;19;20014;-76
2023/02/02 04:19:08;;;;;;;13.35;3.15;;;;;;;7.74;80.62;102434.25;6106820;19;20014;-76
2023/02/02 04:21:15;;;;;;;16.98;3.75;;;;;;;7.72;80.16;102433.38;6106946;19;20386;-76
2023/02/02 04:23:19;;;;;;;18.88;4.10;;;;;;;7.77;80.20;102436.84;6107179;19;20014;-77
2023/02/02 04:25:27;;;;;;;12.52;3.55;;;;;;;7.74;80.25;102442.09;6104312;19;20014;-76
2023/02/02 04:27:33;;;;;;;14.30;3.50;;;;;;;7.71;80.47;102439.47;6108114;19;20496;-76
2023/02/02 04:29:41;;;;;;;14.38;3.80;;;;;;;7.74;80.18;102439.47;6082068;19;20472;-76
2023/02/02 04:31:48;;;;;;;16.60;3.15;;;;;;;7.75;80.50;102435.97;6095151;19;20035;-76
2023/02/02 04:33:53;;;;;;;13.20;3.38;;;;;;;7.76;80.08;102442.06;6106687;19;20022;-77
2023/02/02 04:35:59;;;;;;;16.10;3.88;;;;;;;7.74;80.07;102438.59;6084439;19;20027;-77
2023/02/02 04:38:04;;;;;;;14.15;4.00;;;;;;;7.71;80.62;102447.31;6105598;19;20021;-76
2023/02/02 04:40:11;;;;;;;19.85;4.15;;;;;;;7.74;79.98;102449.06;6100534;19;20018;-77
2023/02/02 04:42:18;;;;;;;14.50;3.47;;;;;;;7.70;80.27;102451.69;6107180;19;20646;-78
2023/02/02 04:44:23;;;;;;;11.38;3.15;;;;;;;7.74;80.45;102463.03;6071841;19;20090;-77
2023/02/02 04:46:28;;;;;;;11.88;3.30;;;;;;;7.79;80.10;102453.41;6107666;19;20022;-76
2023/02/02 04:48:34;;;;;;;8.20;2.63;;;;;;;7.72;80.18;102451.69;6104953;19;20497;-76
2023/02/02 04:50:41;;;;;;;13.45;3.22;;;;;;;7.78;80.02;102456.91;6088163;19;20010;-76
2023/02/02 04:52:49;;;;;;;12.18;3.00;;;;;;;7.81;79.92;102456.03;6081047;19;20532;-76
2023/02/02 04:54:54;;;;;;;13.38;3.95;;;;;;;7.76;80.22;102457.78;6085152;19;20081;-76
2023/02/02 04:56:59;;;;;;;12.88;2.78;;;;;;;7.74;80.53;102460.41;6084140;19;20105;-76
2023/02/02 04:59:07;;;;;;;15.75;3.47;;;;;;;7.74;80.42;102454.28;6083290;19;20010;-76
2023/02/02 05:01:14;;;;;;;8.35;3.13;;;;;;;7.76;80.13;102456.03;6083888;19;20039;-76
2023/02/02 05:03:19;;;;;;;11.40;3.40;;;;;;;7.72;80.27;102454.31;6084029;19;20279;-76
2023/02/02 05:05:24;;;;;;;12.20;3.17;;;;;;;7.73;80.13;102458.66;6084324;19;20552;-76
2023/02/02 05:07:29;;;;;;;16.42;3.88;;;;;;;7.75;80.15;102456.91;6105759;19;20106;-76
2023/02/02 05:09:36;;;;;;;14.85;3.83;;;;;;;7.72;80.23;102461.31;6086216;19;20098;-76
2023/02/02 05:11:43;;;;;;;16.05;3.65;;;;;;;7.70;80.50;102456.06;6081686;19;20018;-76
2023/02/02 05:13:50;;;;;;;14.50;3.47;;;;;;;7.68;80.79;102453.44;6081114;19;20484;-76
2023/02/02 05:15:58;;;;;;;10.02;3.03;;;;;;;7.66;80.60;102463.06;6101473;19;20011;-76
2023/02/02 05:18:03;;;;;;;15.00;3.70;;;;;;;7.65;80.79;102455.19;6108804;19;20018;-76
2023/02/02 05:20:10;;;;;;;12.70;3.08;;;;;;;7.71;80.57;102463.00;6082636;19;20038;-75
2023/02/02 05:22:15;;;;;;;10.05;3.17;;;;;;;7.70;80.72;102463.91;6098150;19;20011;-76
2023/02/02 05:24:20;;;;;;;9.57;3.50;;;;;;;7.67;80.54;102459.56;6102634;19;20014;-76
2023/02/02 05:26:26;;;;;;;13.25;3.85;;;;;;;7.74;80.31;102451.66;6083232;19;20010;-77
2023/02/02 05:28:34;;;;;;;19.05;4.22;;;;;;;7.70;80.63;102463.91;6082804;19;20007;-77
2023/02/02 05:30:41;;;;;;;13.63;3.08;;;;;;;7.66;80.53;102468.28;6106853;19;20007;-78
2023/02/02 05:32:51;;;;;;;7.97;2.83;;;;;;;7.66;80.76;102472.63;6106017;19;20055;-77
2023/02/02 05:34:57;;;;;;;14.77;3.60;;;;;;;7.64;80.96;102462.19;6105109;19;20467;-77
2023/02/02 05:37:02;;;;;;;11.68;3.50;;;;;;;7.66;80.63;102467.38;6107506;19;20010;-77
2023/02/02 05:39:09;;;;;;;12.38;3.65;;;;;;;7.66;80.63;102470.91;6107539;19;20027;-77
2023/02/02 05:41:14;;;;;;;13.05;3.40;;;;;;;7.66;80.50;102464.78;6105990;19;20472;-77
2023/02/02 05:43:19;;;;;;;13.70;3.40;;;;;;;7.62;80.91;102463.91;6106089;19;20018;-77
2023/02/02 05:45:25;;;;;;;13.73;3.78;;;;;;;7.60;81.25;102465.66;6106865;19;20006;-76
2023/02/02 05:47:30;;;;;;;12.88;3.50;;;;;;;7.65;80.71;102455.19;6103958;19;20028;-75
2023/02/02 05:49:38;;;;;;;17.00;3.85;;;;;;;7.61;80.80;102459.56;6107797;19;20006;-76
2023/02/02 05:51:46;;;;;;;10.85;3.20;;;;;;;7.65;80.76;102460.44;6103923;19;20368;-75
2023/02/02 05:53:51;;;;;;;12.50;3.10;;;;;;;7.60;81.16;102457.81;6106229;19;20018;-75
2023/02/02 05:55:58;;;;;;;17.08;4.53;;;;;;;7.62;81.46;102463.06;6110521;19;20364;-76
2023/02/02 05:58:03;;;;;;;12.45;3.45;;;;;;;7.62;81.15;102470.91;6108022;19;20034;-77
2023/02/02 06:00:13;;;;;;;23.25;3.63;;;;;;;7.62;81.34;102476.13;6112435;19;20011;-75
2023/02/02 06:02:21;;;;;;;17.50;4.03;;;;;;;7.58;81.88;102472.66;6109510;19;20010;-77
2023/02/02 06:04:26;;;;;;;14.35;3.60;;;;;;;7.61;81.47;102466.53;6110594;19;20030;-76
2023/02/02 06:06:37;;;;;;;21.00;3.45;;;;;;;7.64;81.44;102474.41;6109045;19;20390;-76
2023/02/02 06:08:42;;;;;;;15.43;3.50;;;;;;;7.61;81.41;102470.03;6108713;19;20510;-75
2023/02/02 06:10:49;;;;;;;15.20;4.55;;;;;;;7.63;81.47;102480.47;6109989;19;20121;-75
2023/02/02 06:12:54;;;;;;;14.55;4.47;;;;;;;7.61;81.43;102490.97;6105854;19;20459;-75
2023/02/02 06:14:59;;;;;;;17.70;4.07;;;;;;;7.65;81.27;102478.75;6105675;19;20011;-76
2023/02/02 06:17:05;;;;;;;13.55;3.58;;;;;;;7.64;81.27;102485.72;6105566;19;20311;-76
2023/02/02 06:19:10;;;;;;;18.42;4.22;;;;;;;7.67;81.28;102487.47;6103652;19;20082;-78
2023/02/02 06:21:15;;;;;;;8.75;3.45;;;;;;;7.63;81.21;102483.09;6104438;19;20364;-76
2023/02/02 06:23:23;;;;;;;14.65;4.18;;;;;;;7.65;80.90;102489.22;6106512;19;20081;-75
2023/02/02 06:25:29;;;;;;;12.80;3.70;;;;;;;7.69;80.56;102493.56;6104036;19;20360;-75
2023/02/02 06:27:36;;;;;;;13.40;4.07;;;;;;;7.67;80.57;102484.84;6099630;19;20393;-76
2023/02/02 06:29:41;;;;;;;13.73;4.45;;;;;;;7.69;80.83;102497.06;6099897;19;20054;-76
2023/02/02 06:31:48;;;;;;;10.75;3.00;;;;;;;7.69;80.75;102499.69;6100628;19;20011;-76
2023/02/02 06:33:58;;;;;;;10.88;3.40;;;;;;;7.67;81.11;102500.56;6105060;19;20028;-75
2023/02/02 06:36:07;;;;;;;8.25;3.33;;;;;;;7.65;81.23;102513.63;6104441;19;20035;-76
2023/02/02 06:38:12;;;;;;;17.75;4.18;;;;;;;7.63;81.14;102517.09;6104125;19;20070;-75
2023/02/02 06:40:20;;;;;;;20.90;4.20;;;;;;;7.69;81.41;102523.22;6106004;19;20472;-75
2023/02/02 06:42:25;;;;;;;11.70;3.13;;;;;;;7.68;81.26;102531.94;6104142;19;20016;-75
2023/02/02 06:44:30;;;;;;;18.05;3.85;;;;;;;7.68;81.73;102521.47;6103410;19;20086;-75
2023/02/02 06:46:35;;;;;;;14.18;4.05;;;;;;;7.61;81.97;102511.91;6104048;19;20007;-75
2023/02/02 06:48:40;;;;;;;14.43;3.92;;;;;;;7.65;81.54;102520.59;6103156;19;20475;-75
2023/02/02 06:50:45;;;;;;;16.58;4.07;;;;;;;7.60;81.83;102507.53;6105266;19;20013;-76
2023/02/02 06:52:50;;;;;;;21.02;3.75;;;;;;;7.65;81.48;102503.16;6099512;19;20011;-77
2023/02/02 06:54:55;;;;;;;13.80;3.20;;;;;;;7.61;81.73;102506.66;6104812;19;20753;-77
2023/02/02 06:57:08;;;;;;;15.38;4.18;;;;;;;7.64;81.39;102511.88;6106642;19;20040;-77
2023/02/02 06:59:13;;;;;;;10.32;3.15;;;;;;;7.61;81.74;102506.66;6105528;19;20070;-77
2023/02/02 07:01:17;;;;;;;14.10;2.65;;;;;;;7.59;81.52;102505.78;6101281;19;20003;-77
2023/02/02 07:03:23;;;;;;;15.45;4.03;;;;;;;7.58;81.34;102517.16;6079806;19;20010;-76
2023/02/02 07:05:29;;;;;;;15.18;4.38;;;;;;;7.55;81.58;102508.41;6101317;19;20007;-76
2023/02/02 07:07:36;;;;;;;15.18;4.30;;;;;;;7.58;80.85;102509.28;6102173;19;20017;-76
2023/02/02 07:09:41;;;;;;;13.02;3.70;;;;;;;7.60;80.78;102511.88;6105722;19;20020;-78
2023/02/02 07:11:48;;;;;;;9.13;2.95;;;;;;;7.57;81.24;102531.06;6083200;19;20527;-78
2023/02/02 07:13:55;;;;;;;15.90;2.85;;;;;;;7.58;81.16;102526.72;6099712;19;20564;-76
2023/02/02 07:16:05;;;;;;;16.77;3.88;;;;;;;7.55;81.13;102535.44;6083205;19;20044;-76
2023/02/02 07:18:10;;;;;;;21.90;4.32;;;;;;;7.53;81.38;102534.59;6102949;19;20455;-77
2023/02/02 07:20:15;;;;;;;13.80;3.72;;;;;;;7.50;81.12;102528.47;6102299;19;20031;-78
2023/02/02 07:22:20;;;;;;;11.52;3.10;;;;;;;7.52;81.05;102527.59;6103405;19;20021;-76
2023/02/02 07:24:26;;;;;;;14.77;4.60;;;;;;;7.52;81.25;102531.97;6104543;19;20039;-76
2023/02/02 07:26:33;;;;;;;13.13;4.13;;;;;;;7.50;81.00;102538.94;6102093;19;20073;-76
2023/02/02 07:28:42;;;;;;;17.42;3.72;;;;;;;7.47;81.60;102542.41;6101461;19;20024;-76
2023/02/02 07:30:50;;;;;;;12.02;3.40;;;;;;;7.42;81.50;102552.88;6103464;19;20018;-75
2023/02/02 07:32:55;;;;;;;19.13;4.32;;;;;;;7.43;81.54;102543.31;6102977;19;20027;-78
2023/02/02 07:35:02;;;;;;;14.32;3.90;;;;;;;7.44;81.61;102548.50;6084967;19;20070;-77
2023/02/02 07:37:08;;;;;;;18.67;2.92;;;;;;;7.47;81.19;102545.03;6102242;19;20015;-77
2023/02/02 07:39:15;;;;;;;22.98;4.55;;;;;;;7.48;81.39;102560.75;6110621;19;20479;-77
2023/02/02 07:41:20;;;;;;;15.25;3.28;;;;;;;7.46;81.42;102565.09;6087339;19;20018;-76
2023/02/02 07:43:25;;;;;;;11.95;3.15;;;;;;;7.46;81.76;102572.06;6109282;19;20010;-76
2023/02/02 07:45:30;;;;;;;11.00;3.30;;;;;;;7.47;81.24;102565.97;6108179;19;20011;-76
2023/02/02 07:47:39;;;;;;;9.43;2.83;;;;;;;7.48;81.48;102573.81;6107779;19;20351;-76
2023/02/02 07:49:44;;;;;;;10.75;3.60;;;;;;;7.47;81.60;102573.81;6109642;19;20479;-77
2023/02/02 07:51:52;;;;;;;13.25;3.10;;;;;;;7.46;81.66;102575.56;6104181;19;20670;-76
2023/02/02 07:53:58;;;;;;;11.52;3.90;;;;;;;7.45;81.55;102586.91;6105870;19;20014;-75
2023/02/02 07:56:11;;;;;;;12.25;3.25;;;;;;;7.47;81.53;102576.41;6111452;19;20014;-78
2023/02/02 07:58:19;;;;;;;14.85;3.42;;;;;;;7.45;81.76;102575.53;6108934;19;20006;-78
2023/02/02 08:00:25;;;;;;;10.68;3.22;;;;;;;7.45;81.63;102579.06;6112579;19;20397;-77
2023/02/02 08:02:30;;;;;;;10.32;3.25;;;;;;;7.48;81.64;102578.19;6112056;19;20039;-77
2023/02/02 08:04:39;;;;;;;12.27;3.88;;;;;;;7.44;81.88;102587.75;6108104;19;20014;-77
2023/02/02 08:06:47;;;;;;;13.15;3.15;;;;;;;7.48;81.97;102584.28;6111608;19;20019;-78
2023/02/02 08:08:53;;;;;;;13.57;3.53;;;;;;;7.44;81.79;102577.28;6109414;19;20014;-77
2023/02/02 08:10:58;;;;;;;19.02;3.90;;;;;;;7.50;81.25;102580.78;6109075;19;20388;-78
2023/02/02 08:13:03;;;;;;;14.88;3.38;;;;;;;7.48;81.63;102596.50;6109888;19;20364;-77
2023/02/02 08:15:13;;;;;;;15.85;3.45;;;;;;;7.47;81.69;102592.13;6106941;19;20563;-76
2023/02/02 08:17:18;;;;;;;14.05;3.97;;;;;;;7.50;81.62;102583.41;6108506;19;20043;-75
2023/02/02 08:19:23;;;;;;;14.75;3.58;;;;;;;7.49;81.40;102590.38;6110140;19;20527;-74
2023/02/02 08:21:37;;;;;;;15.75;3.90;;;;;;;7.52;81.48;102592.13;6108367;19;20500;-75
2023/02/02 08:23:45;;;;;;;16.85;4.32;;;;;;;7.53;81.49;102594.75;6109028;19;20013;-76
2023/02/02 08:25:50;;;;;;;10.45;3.08;;;;;;;7.58;81.50;102605.19;6108880;19;20002;-74
2023/02/02 08:27:57;;;;;;;18.42;3.20;;;;;;;7.55;81.69;102595.59;6101272;19;20019;-76
2023/02/02 08:30:02;;;;;;;14.88;3.13;;;;;;;7.60;81.33;102598.22;6110504;19;20006;-78
2023/02/02 08:32:09;;;;;;;12.70;3.25;;;;;;;7.65;81.40;102586.88;6110664;19;20007;-77
2023/02/02 08:34:15;;;;;;;16.67;3.40;;;;;;;7.69;80.90;102603.47;6110958;19;20014;-77
2023/02/02 08:36:22;;;;;;;15.70;3.10;;;;;;;7.69;80.82;102600.84;6109536;19;20007;-78
2023/02/02 08:38:30;;;;;;;9.68;3.20;;;;;;;7.70;80.92;102600.84;6108146;19;20041;-77
2023/02/02 08:40:35;;;;;;;17.63;3.80;;;;;;;7.71;81.06;102606.94;6110425;19;20010;-75
2023/02/02 08:42:40;;;;;;;14.05;3.45;;;;;;;7.70;81.16;102605.22;6109168;19;20099;-75
2023/02/02 08:44:45;;;;;;;11.95;3.72;;;;;;;7.69;80.79;102625.28;6107650;19;20463;-75
2023/02/02 08:47:11;;;;;;;22.80;3.90;;;;;;;7.73;80.58;102620.91;6105179;19;20014;-74
2023/02/02 08:49:18;;;;;;;14.05;4.20;;;;;;;7.73;80.66;102615.66;6105519;19;20014;-74
2023/02/02 08:51:23;;;;;;;10.57;3.58;;;;;;;7.74;80.58;102616.53;6106747;19;20032;-76
2023/02/02 08:53:31;;;;;;;20.65;3.75;;;;;;;7.77;80.75;102624.41;6107258;19;20022;-74
2023/02/02 08:55:36;;;;;;;13.98;4.50;;;;;;;7.82;80.62;102620.00;6109118;19;20010;-75
2023/02/02 08:57:41;;;;;;;13.75;3.45;;;;;;;7.82;80.54;102622.63;6110677;19;20074;-76
2023/02/02 08:59:49;;;;;;;19.15;3.13;;;;;;;7.85;80.49;102623.53;6112196;19;20018;-77
2023/02/02 09:01:55;;;;;;;11.68;2.72;;;;;;;7.83;80.90;102622.66;6108939;19;20019;-77
2023/02/02 09:04:03;;;;;;;16.05;3.58;;;;;;;7.85;80.59;102626.13;6113062;19;20331;-77
2023/02/02 09:06:11;;;;;;;17.13;3.17;;;;;;;7.84;80.47;102632.22;6113855;19;20018;-75
2023/02/02 09:08:18;;;;;;;10.15;3.10;;;;;;;7.83;80.80;102638.34;6110127;19;20010;-75
2023/02/02 09:10:27;;;;;;;16.92;3.00;;;;;;;7.83;80.63;102633.13;6110576;19;20017;-75
2023/02/02 09:12:32;;;;;;;12.82;3.78;;;;;;;7.86;80.39;102647.94;6112255;19;20139;-75
2023/02/02 09:14:38;;;;;;;11.10;3.50;;;;;;;7.87;80.62;102634.88;6110162;19;20022;-75
2023/02/02 09:16:44;;;;;;;16.60;3.30;;;;;;;7.87;79.83;102634.88;6110000;19;20027;-78
2023/02/02 09:18:51;;;;;;;11.48;2.90;;;;;;;7.88;80.10;102641.84;6111469;19;20015;-76
2023/02/02 09:20:57;;;;;;;11.80;3.35;;;;;;;7.90;79.98;102647.97;6106773;19;20078;-75
2023/02/02 09:23:03;;;;;;;10.85;3.20;;;;;;;7.87;79.81;102644.44;6106540;19;20053;-76
2023/02/02 09:25:11;;;;;;;9.75;2.67;;;;;;;7.93;80.59;102654.06;6106223;19;20042;-75
2023/02/02 09:27:18;;;;;;;15.63;3.65;;;;;;;7.96;80.02;102640.97;6109667;19;20014;-75
2023/02/02 09:29:23;;;;;;;14.75;2.63;;;;;;;7.99;79.48;102648.81;6105732;19;20119;-75
2023/02/02 09:31:28;;;;;;;12.52;3.90;;;;;;;8.07;79.61;102655.78;6107400;19;20035;-75
2023/02/02 09:33:35;;;;;;;14.75;3.35;;;;;;;8.16;79.51;102657.50;6108806;19;20384;-78
2023/02/02 09:35:40;;;;;;;11.20;3.15;;;;;;;8.23;79.13;102653.16;6107825;19;20010;-73
2023/02/02 09:37:45;;;;;;;12.30;3.20;;;;;;;8.32;79.13;102661.88;6106011;19;20035;-76
2023/02/02 09:39:51;;;;;;;15.95;3.50;;;;;;;8.43;78.24;102658.41;6109316;19;20290;-78
2023/02/02 09:42:27;;;;;;;17.05;3.10;;;;;;;8.47;78.50;102658.38;6105262;19;20018;-76
2023/02/02 09:44:57;;;;;;;15.30;3.00;;;;;;;8.57;77.89;102659.22;6104803;19;20013;-75
2023/02/02 09:47:14;;;;;;;13.65;3.13;;;;;;;8.57;77.53;102653.97;6106700;19;20348;-78
2023/02/02 09:49:23;;;;;;;13.90;3.17;;;;;;;8.52;78.01;102656.59;6105717;19;20040;-78
2023/02/02 09:51:34;;;;;;;21.48;3.58;;;;;;;8.48;77.25;102646.16;6104251;19;20682;-78
2023/02/02 09:53:47;;;;;;;15.70;3.17;;;;;;;8.46;77.14;102634.81;6103926;19;20479;-76
2023/02/02 09:56:02;;;;;;;17.88;3.22;;;;;;;8.46;77.21;102640.03;6101593;19;20022;-76
2023/02/02 09:58:17;;;;;;;7.95;2.85;;;;;;;8.52;77.52;102647.88;6105304;19;20026;-76
2023/02/02 10:00:31;;;;;;;8.60;2.28;;;;;;;8.60;77.01;102653.97;6104088;19;20039;-74
2023/02/02 10:02:48;;;;;;;16.75;3.58;;;;;;;8.57;77.19;102659.22;6106141;19;20007;-75
2023/02/02 10:04:57;;;;;;;15.88;3.22;;;;;;;8.60;77.34;102664.44;6107201;19;20006;-76